Time;durP1;ratioP1;P1;durP2;ratioP2;P2;SDS_P1;SDS_P2;PMS_P1;PMS_P2;Temp;Humidity;BMP_temperature;BMP_pressure;BME280_temperature;BME280_humidity;BME280_pressure;Samples;Min_cycle;Max_cycle;Signal;HPM_P1;HPM_P2
2021/01/31 04:03:03;;;;;;;44.90;19.10;;;;;;;2.32;100.00;98591.54;1764650;79;21184;-77
2021/01/31 04:05:32;;;;;;;45.28;17.55;;;;;;;2.34;100.00;98587.01;1777705;78;21595;-78
2021/01/31 04:08:02;;;;;;;46.48;17.20;;;;;;;2.36;100.00;98593.28;1760819;78;21219;-78
2021/01/31 04:10:31;;;;;;;49.18;17.48;;;;;;;2.38;100.00;98586.98;1758350;79;21026;-73
2021/01/31 04:13:00;;;;;;;44.08;19.42;;;;;;;2.40;100.00;98588.91;1856110;75;21352;-77
2021/01/31 04:15:50;;;;;;;124.45;58.87;;;;;;;2.42;100.00;98593.87;1825392;76;21795;-80
2021/01/31 04:18:19;;;;;;;68.20;34.23;;;;;;;2.44;100.00;98595.80;1796737;78;21152;-79
2021/01/31 04:20:48;;;;;;;45.20;22.10;;;;;;;2.47;100.00;98596.75;1855561;75;21648;-77
2021/01/31 04:23:16;;;;;;;30.97;15.95;;;;;;;2.49;100.00;98596.07;1856226;75;20958;-77
2021/01/31 04:25:44;;;;;;;23.55;11.63;;;;;;;2.50;100.00;98598.98;1852322;75;21192;-77
2021/01/31 04:28:23;;;;;;;19.35;10.30;;;;;;;2.53;100.00;98603.75;1853739;76;21168;-79
2021/01/31 04:30:55;;;;;;;20.68;10.00;;;;;;;2.56;100.00;98606.48;1855241;75;21080;-76
2021/01/31 04:33:24;;;;;;;16.07;9.00;;;;;;;2.57;100.00;98605.01;1856422;75;20966;-76
2021/01/31 04:35:53;;;;;;;15.85;10.10;;;;;;;2.59;100.00;98603.57;1857261;75;21128;-72
2021/01/31 04:38:22;;;;;;;14.20;8.23;;;;;;;2.60;100.00;98603.88;1854628;76;21360;-76
2021/01/31 04:40:53;;;;;;;14.78;8.70;;;;;;;2.62;100.00;98610.46;1817155;78;27424;-78
2021/01/31 04:43:21;;;;;;;13.85;8.55;;;;;;;2.63;100.00;98609.48;1845697;76;21082;-79
2021/01/31 04:45:53;;;;;;;15.60;8.70;;;;;;;2.64;100.00;98614.93;1782692;78;21154;-78
2021/01/31 04:48:51;;;;;;;12.43;7.87;;;;;;;2.66;100.00;98621.20;1823525;76;21084;-81
2021/01/31 04:51:42;;;;;;;14.80;8.83;;;;;;;2.70;100.00;98625.52;1817662;75;21314;-74
2021/01/31 04:54:40;;;;;;;12.40;7.97;;;;;;;2.70;100.00;98619.09;1819034;76;21118;-78
2021/01/31 04:57:16;;;;;;;12.65;8.13;;;;;;;2.70;100.00;98632.75;1842280;76;21216;-79
2021/01/31 04:59:49;;;;;;;14.53;8.70;;;;;;;2.72;100.00;98633.36;1783353;78;21075;-78
2021/01/31 05:02:38;;;;;;;25.65;18.60;;;;;;;2.72;100.00;98623.56;1847986;76;21527;-75
2021/01/31 05:05:18;;;;;;;116.37;61.58;;;;;;;2.72;100.00;98622.28;1853248;75;21197;-75
2021/01/31 05:07:56;;;;;;;108.03;55.78;;;;;;;2.74;100.00;98625.48;1855221;75;21085;-77
2021/01/31 05:10:27;;;;;;;61.95;36.00;;;;;;;2.75;100.00;98637.37;1853102;76;21093;-75
2021/01/31 05:13:15;;;;;;;39.70;30.25;;;;;;;2.76;100.00;98636.39;1860311;75;20922;-78
2021/01/31 05:15:59;;;;;;;24.00;20.05;;;;;;;2.78;100.00;98640.89;1850540;75;21439;-76
2021/01/31 05:18:27;;;;;;;18.70;14.93;;;;;;;2.79;100.00;98645.06;1857059;75;22050;-76
2021/01/31 05:21:00;;;;;;;17.52;12.60;;;;;;;2.80;100.00;98641.51;1852049;76;20918;-75
2021/01/31 05:23:32;;;;;;;18.20;10.80;;;;;;;2.82;100.00;98648.58;1863432;75;21584;-76
2021/01/31 05:26:00;;;;;;;16.25;8.68;;;;;;;2.82;100.00;98644.23;1862725;75;21124;-78
2021/01/31 05:28:29;;;;;;;16.32;8.78;;;;;;;2.84;100.00;98633.75;1865778;76;21125;-76
2021/01/31 05:30:57;;;;;;;16.05;10.43;;;;;;;2.86;100.00;98628.75;1818844;76;22332;-75
2021/01/31 05:33:26;;;;;;;16.42;10.32;;;;;;;2.90;100.00;98635.16;1851898;76;21644;-74
2021/01/31 05:36:11;;;;;;;17.20;9.00;;;;;;;2.91;100.00;98630.80;1848303;76;20903;-77
2021/01/31 05:38:44;;;;;;;16.95;10.00;;;;;;;2.92;100.00;98637.08;1784280;78;21111;-72
2021/01/31 05:41:45;;;;;;;16.42;9.85;;;;;;;2.94;100.00;98647.19;1839126;77;21120;-76
2021/01/31 05:44:26;;;;;;;16.20;10.15;;;;;;;2.96;100.00;98643.97;1836766;76;21652;-75
2021/01/31 05:47:03;;;;;;;18.73;11.48;;;;;;;2.96;100.00;98649.12;1852767;76;21548;-77
2021/01/31 05:49:47;;;;;;;23.57;18.27;;;;;;;2.99;100.00;98647.95;1859348;75;21534;-74
2021/01/31 05:52:30;;;;;;;18.32;11.63;;;;;;;2.98;100.00;98654.08;1861943;75;20918;-76
2021/01/31 05:54:58;;;;;;;16.55;11.20;;;;;;;2.97;100.00;98650.71;1862276;75;21046;-74
2021/01/31 05:57:34;;;;;;;19.00;11.28;;;;;;;2.98;100.00;98650.22;1858371;76;21063;-79
2021/01/31 06:00:24;;;;;;;19.17;12.30;;;;;;;2.98;100.00;98660.52;1857885;75;21116;-75
2021/01/31 06:03:05;;;;;;;23.85;16.37;;;;;;;2.98;100.00;98660.52;1853938;76;21590;-75
2021/01/31 06:05:33;;;;;;;19.92;12.45;;;;;;;2.98;100.00;98656.16;1862092;76;28653;-75
2021/01/31 06:08:09;;;;;;;19.10;12.03;;;;;;;2.99;100.00;98662.91;1864606;75;20982;-77
2021/01/31 06:10:40;;;;;;;18.85;11.70;;;;;;;2.99;100.00;98664.19;1834367;76;22341;-75
2021/01/31 06:13:13;;;;;;;19.02;12.82;;;;;;;2.99;100.00;98660.33;1860976;75;21065;-76
2021/01/31 06:16:01;;;;;;;19.00;11.50;;;;;;;3.00;100.00;98663.24;1828617;77;21113;-77
2021/01/31 06:18:40;;;;;;;20.17;13.43;;;;;;;3.00;100.00;98671.45;1853660;76;21477;-77
2021/01/31 06:21:17;;;;;;;19.67;12.65;;;;;;;3.01;100.00;98670.47;1864432;75;21106;-75
2021/01/31 06:23:50;;;;;;;19.23;11.88;;;;;;;3.01;100.00;98662.26;1858831;75;22289;-74
2021/01/31 06:26:23;;;;;;;;;;;;;;;3.02;100.00;98654.84;1868119;76;21196;-76
2021/01/31 06:28:54;;;;;;;17.73;11.63;;;;;;;3.05;100.00;98654.50;1863579;75;20263;-76
2021/01/31 06:31:45;;;;;;;21.15;13.13;;;;;;;3.09;100.00;98655.75;1860911;76;20977;-76
2021/01/31 06:34:14;;;;;;;19.48;12.98;;;;;;;3.13;100.00;98656.20;1855789;75;21128;-77
2021/01/31 06:37:16;;;;;;;19.70;12.63;;;;;;;3.15;100.00;98652.98;1861800;75;22266;-76
2021/01/31 06:40:20;;;;;;;20.60;12.68;;;;;;;3.16;100.00;98659.23;1858673;75;21060;-77
2021/01/31 06:43:22;;;;;;;19.90;12.68;;;;;;;3.16;100.00;98659.23;1806643;76;21200;-74
2021/01/31 06:46:41;;;;;;;18.10;12.05;;;;;;;3.17;100.00;98653.10;1856363;76;20980;-73
2021/01/31 06:49:38;;;;;;;18.90;11.97;;;;;;;3.19;100.00;98659.37;1851570;75;21108;-74
2021/01/31 06:52:40;;;;;;;20.80;12.55;;;;;;;3.21;100.00;98664.34;1862015;75;22534;-72
2021/01/31 06:55:31;;;;;;;19.20;12.10;;;;;;;3.23;100.00;98672.22;1860141;75;21594;-73
2021/01/31 06:58:22;;;;;;;17.40;12.50;;;;;;;3.26;100.00;98684.75;1754020;81;21515;-76
2021/01/31 07:01:17;;;;;;;20.55;13.25;;;;;;;3.29;100.00;98688.73;1756105;81;21072;-74
2021/01/31 07:04:10;;;;;;;26.00;12.82;;;;;;;3.31;100.00;98679.86;1746561;81;21555;-73
2021/01/31 07:07:12;;;;;;;18.10;12.85;;;;;;;3.36;100.00;98676.76;1758799;81;21326;-73
2021/01/31 07:10:21;;;;;;;19.27;12.93;;;;;;;3.40;100.00;98681.87;1746744;81;21166;-73
2021/01/31 07:13:17;;;;;;;19.15;10.95;;;;;;;3.44;100.00;98681.83;1756418;81;21211;-72
2021/01/31 07:16:17;;;;;;;17.37;11.57;;;;;;;3.47;100.00;98688.41;1758757;81;21165;-75
2021/01/31 07:19:02;;;;;;;17.10;11.12;;;;;;;3.48;100.00;98688.23;1761849;81;21154;-75
2021/01/31 07:21:39;;;;;;;19.20;12.10;;;;;;;3.50;100.00;98697.09;1750602;81;21420;-76
2021/01/31 07:24:23;;;;;;;20.65;11.80;;;;;;;3.49;100.00;98698.86;1718547;82;21104;-73
2021/01/31 07:26:53;;;;;;;18.32;13.10;;;;;;;3.50;100.00;98701.75;1757987;81;20986;-73
2021/01/31 07:29:30;;;;;;;20.12;12.13;;;;;;;3.51;100.00;98703.34;1745346;81;21267;-74
2021/01/31 07:31:58;;;;;;;19.90;12.23;;;;;;;3.52;100.00;98704.13;1759222;81;20923;-74
2021/01/31 07:34:34;;;;;;;20.68;13.35;;;;;;;3.55;100.00;98707.16;1748390;81;21220;-72
2021/01/31 07:37:17;;;;;;;17.62;11.95;;;;;;;3.56;100.00;98710.08;1758672;81;21239;-74
2021/01/31 07:39:53;;;;;;;18.52;12.05;;;;;;;3.60;100.00;98717.77;1747990;81;21205;-74
2021/01/31 07:42:21;;;;;;;14.40;9.90;;;;;;;3.66;100.00;98717.53;1746899;81;21072;-74
2021/01/31 07:44:49;;;;;;;13.20;9.40;;;;;;;3.70;100.00;98722.64;1747285;81;21922;-72
2021/01/31 07:47:18;;;;;;;15.38;9.58;;;;;;;3.76;100.00;98728.88;1728125;81;21312;-74
2021/01/31 07:49:58;;;;;;;16.32;8.75;;;;;;;3.79;100.00;98728.50;1684252;81;21160;-74
2021/01/31 07:52:54;;;;;;;12.77;7.93;;;;;;;3.88;100.00;98734.70;1824257;77;22096;-74
2021/01/31 07:55:43;;;;;;;11.50;6.40;;;;;;;3.95;100.00;98747.69;1821982;78;22529;-73
2021/01/31 07:58:37;;;;;;;11.60;7.47;;;;;;;3.96;100.00;98740.75;1793032;78;21069;-73
2021/01/31 08:01:09;;;;;;;11.53;7.20;;;;;;;4.03;100.00;98745.02;1741085;80;21387;-73
2021/01/31 08:03:39;;;;;;;11.43;7.40;;;;;;;4.08;100.00;98740.12;1713663;81;21109;-74
2021/01/31 08:06:21;;;;;;;10.30;7.00;;;;;;;4.14;100.00;98744.58;1744077;80;20949;-75
2021/01/31 08:08:53;;;;;;;10.15;6.83;;;;;;;4.17;100.00;98738.27;1744814;80;20996;-75
2021/01/31 08:11:38;;;;;;;10.50;6.20;;;;;;;4.20;100.00;98742.25;1744142;80;20943;-74
2021/01/31 08:14:08;;;;;;;9.58;6.05;;;;;;;4.22;100.00;98744.97;1737438;81;21369;-74
2021/01/31 08:16:53;;;;;;;10.72;5.75;;;;;;;4.26;100.00;98753.16;1738539;81;21152;-75
2021/01/31 08:19:30;;;;;;;7.28;5.28;;;;;;;4.27;100.00;98765.06;1758124;80;21619;-75
2021/01/31 08:22:13;;;;;;;10.38;6.15;;;;;;;4.30;100.00;98770.67;1729082;81;21595;-75
2021/01/31 08:25:08;;;;;;;10.55;6.83;;;;;;;4.31;100.00;98779.20;1735280;82;21185;-75
2021/01/31 08:28:00;;;;;;;9.13;5.85;;;;;;;4.33;100.00;98774.68;1733241;81;22172;-74
2021/01/31 08:30:42;;;;;;;8.05;5.30;;;;;;;4.37;100.00;98775.92;1730285;82;21059;-75
2021/01/31 08:33:29;;;;;;;7.30;4.97;;;;;;;4.43;100.00;98777.77;1738028;81;21183;-75
2021/01/31 08:36:13;;;;;;;9.25;5.30;;;;;;;4.51;100.00;98770.41;1741598;81;21664;-75
2021/01/31 08:38:45;;;;;;;10.93;5.90;;;;;;;4.60;100.00;98770.64;1738015;81;21088;-75
2021/01/31 08:41:36;;;;;;;11.85;5.75;;;;;;;4.69;100.00;98779.86;1736300;81;21208;-75
2021/01/31 08:44:15;;;;;;;11.97;6.47;;;;;;;4.75;100.00;98762.87;1734087;81;21212;-76
2021/01/31 08:47:01;;;;;;;11.30;6.62;;;;;;;4.80;100.00;98775.52;1735156;81;21746;-75
2021/01/31 08:49:29;;;;;;;8.95;6.03;;;;;;;4.83;100.00;98775.16;1735750;81;21665;-75
2021/01/31 08:52:02;;;;;;;9.63;5.75;;;;;;;4.88;100.00;98781.06;1740424;81;21137;-72
2021/01/31 08:54:30;;;;;;;9.20;6.08;;;;;;;4.93;100.00;98790.38;1740591;81;21373;-74
2021/01/31 08:57:07;;;;;;;9.45;6.05;;;;;;;4.96;100.00;98791.28;1723905;81;22499;-75
2021/01/31 08:59:48;;;;;;;11.48;5.85;;;;;;;4.99;100.00;98788.34;1727117;81;21129;-75
2021/01/31 09:02:25;;;;;;;8.33;6.25;;;;;;;5.02;100.00;98791.85;1701917;82;21207;-74
2021/01/31 09:05:13;;;;;;;11.12;6.67;;;;;;;5.05;100.00;98787.62;1783324;80;21555;-72
2021/01/31 09:07:44;;;;;;;11.50;6.70;;;;;;;5.08;100.00;98789.84;1781543;80;21203;-73
2021/01/31 09:10:40;;;;;;;7.53;5.12;;;;;;;5.10;100.00;98790.44;1736369;81;21175;-74
2021/01/31 09:13:17;;;;;;;7.75;5.15;;;;;;;5.10;100.00;98782.69;1700808;82;21022;-74
2021/01/31 09:15:47;;;;;;;8.95;5.78;;;;;;;5.13;100.00;98786.20;1729092;82;21639;-75
2021/01/31 09:18:21;;;;;;;9.98;5.75;;;;;;;5.19;100.00;98790.31;1699927;82;21177;-75
2021/01/31 09:20:50;;;;;;;9.53;5.70;;;;;;;5.22;100.00;98795.13;1780279;80;21587;-75
2021/01/31 09:23:27;;;;;;;9.75;6.75;;;;;;;5.26;100.00;98802.31;1780715;80;21184;-76
2021/01/31 09:25:55;;;;;;;9.30;6.50;;;;;;;5.29;100.00;98805.03;1776077;80;21600;-74
2021/01/31 09:28:24;;;;;;;10.53;7.22;;;;;;;5.30;100.00;98813.91;1779568;80;21165;-75
2021/01/31 09:31:00;;;;;;;9.48;6.00;;;;;;;5.29;100.00;98805.83;1778154;80;21203;-74
2021/01/31 09:33:38;;;;;;;9.23;6.05;;;;;;;5.33;100.00;98797.21;1780189;80;21252;-72
2021/01/31 09:36:20;;;;;;;11.60;7.40;;;;;;;5.39;100.00;98793.91;1781120;79;21651;-74
2021/01/31 09:38:50;;;;;;;10.08;7.20;;;;;;;5.54;100.00;98794.63;1781031;80;21112;-76
2021/01/31 09:41:21;;;;;;;11.15;6.87;;;;;;;5.75;100.00;98817.55;1741545;81;21568;-75
2021/01/31 09:44:07;;;;;;;10.75;6.70;;;;;;;5.85;100.00;98821.91;1779947;80;21038;-76
2021/01/31 09:46:35;;;;;;;11.12;7.28;;;;;;;5.89;100.00;98821.05;1780503;79;21254;-73
2021/01/31 09:49:17;;;;;;;11.30;7.70;;;;;;;5.88;100.00;98825.92;1778097;80;21183;-75
2021/01/31 09:51:46;;;;;;;9.15;6.67;;;;;;;5.88;100.00;98837.56;1751198;80;21143;-74
2021/01/31 09:54:23;;;;;;;12.00;8.15;;;;;;;5.86;100.00;98845.48;1782834;79;21034;-75
2021/01/31 09:56:56;;;;;;;11.50;7.30;;;;;;;5.83;100.00;98851.85;1789347;79;21204;-74
2021/01/31 09:59:34;;;;;;;13.38;8.00;;;;;;;5.80;100.00;98870.81;1790763;78;21190;-74
2021/01/31 10:02:10;;;;;;;13.03;8.93;;;;;;;5.80;100.00;98865.64;1799214;79;21227;-74
2021/01/31 10:04:39;;;;;;;10.43;8.20;;;;;;;5.79;100.00;98883.41;1784251;79;21080;-75
2021/01/31 10:07:15;;;;;;;12.80;9.60;;;;;;;5.80;100.00;98885.84;1793965;79;20994;-78
2021/01/31 10:09:50;;;;;;;12.90;9.57;;;;;;;5.85;100.00;98878.81;1788987;79;21180;-72
2021/01/31 10:12:29;;;;;;;13.53;9.55;;;;;;;5.90;100.00;98884.21;1791283;79;22126;-71
2021/01/31 10:15:07;;;;;;;14.43;10.38;;;;;;;5.98;100.00;98875.05;1793364;79;21102;-73
2021/01/31 10:17:44;;;;;;;13.48;9.78;;;;;;;6.08;100.00;98886.38;1793883;79;21137;-72
2021/01/31 10:20:34;;;;;;;12.13;8.97;;;;;;;6.23;100.00;98905.20;1764114;79;21184;-74
2021/01/31 10:23:15;;;;;;;12.50;8.90;;;;;;;6.63;100.00;98908.07;1791012;79;21508;-73
2021/01/31 10:25:59;;;;;;;9.60;6.90;;;;;;;7.15;100.00;98923.55;1791817;79;21291;-72
2021/01/31 10:28:37;;;;;;;9.83;7.13;;;;;;;7.36;100.00;98926.53;1762724;79;21180;-72
2021/01/31 10:31:05;;;;;;;9.00;6.67;;;;;;;7.22;100.00;98961.16;1782257;79;21239;-74
2021/01/31 10:33:46;;;;;;;9.57;6.67;;;;;;;6.94;100.00;98963.83;1799121;79;21794;-75
2021/01/31 10:36:40;;;;;;;9.05;6.50;;;;;;;6.56;100.00;98970.16;1785553;79;21279;-73
2021/01/31 10:39:20;;;;;;;10.00;6.90;;;;;;;6.27;100.00;98987.14;1798787;79;21270;-71
2021/01/31 10:41:48;;;;;;;8.33;6.53;;;;;;;5.93;100.00;98984.74;1783044;79;21247;-71
2021/01/31 10:44:26;;;;;;;9.37;6.40;;;;;;;5.63;100.00;98993.05;1788455;79;21250;-71
2021/01/31 10:46:54;;;;;;;8.90;6.72;;;;;;;5.45;100.00;99006.34;1786638;79;21352;-74
2021/01/31 10:49:22;;;;;;;9.83;7.20;;;;;;;5.36;100.00;99004.86;1790894;79;21204;-71
2021/01/31 10:51:51;;;;;;;10.33;7.17;;;;;;;5.30;100.00;99000.39;1787044;79;23168;-72
2021/01/31 10:54:22;;;;;;;11.57;8.25;;;;;;;5.23;100.00;99020.20;1783469;79;22317;-74
2021/01/31 10:56:52;;;;;;;9.88;7.87;;;;;;;5.17;100.00;99019.61;1784939;79;21161;-74
2021/01/31 10:59:21;;;;;;;9.73;7.10;;;;;;;5.08;100.00;99027.45;1788876;79;21062;-72
2021/01/31 11:01:49;;;;;;;9.73;7.22;;;;;;;4.95;100.00;99047.11;1732570;80;21487;-74
2021/01/31 11:04:22;;;;;;;11.00;7.70;;;;;;;4.78;100.00;99038.73;1784471;79;21209;-73
2021/01/31 11:06:51;;;;;;;10.43;7.30;;;;;;;4.63;100.00;99054.98;1780425;79;21143;-75
2021/01/31 11:09:20;;;;;;;9.78;7.67;;;;;;;4.54;100.00;99055.20;1790419;79;21461;-74
2021/01/31 11:11:48;;;;;;;10.03;7.67;;;;;;;4.48;100.00;99058.01;1784194;79;21022;-75
2021/01/31 11:14:17;;;;;;;11.18;7.87;;;;;;;4.46;100.00;99065.59;1747010;79;21056;-74
2021/01/31 11:16:46;;;;;;;9.15;6.90;;;;;;;4.39;100.00;99070.63;1793312;79;21386;-75
2021/01/31 11:19:14;;;;;;;10.95;7.47;;;;;;;4.37;100.00;99077.76;1787039;79;21063;-72
2021/01/31 11:21:44;;;;;;;9.15;6.90;;;;;;;4.39;100.00;99078.37;1792881;79;21204;-76
2021/01/31 11:24:13;;;;;;;11.43;8.48;;;;;;;4.41;100.00;99089.34;1785970;78;21184;-76
2021/01/31 11:26:43;;;;;;;13.05;9.75;;;;;;;4.43;100.00;99101.56;1777467;79;21034;-75
2021/01/31 11:29:11;;;;;;;13.43;10.38;;;;;;;4.39;100.00;99119.66;1787670;79;21372;-77
2021/01/31 11:31:40;;;;;;;14.80;11.05;;;;;;;4.30;100.00;99128.43;1789756;79;21422;-74
2021/01/31 11:34:08;;;;;;;15.55;11.38;;;;;;;4.17;100.00;99138.02;1786684;79;21082;-74
2021/01/31 11:36:38;;;;;;;15.50;11.48;;;;;;;4.03;100.00;99142.59;1786913;79;21062;-74
2021/01/31 11:39:08;;;;;;;15.13;11.83;;;;;;;3.86;100.00;99149.11;1786440;79;21149;-74
2021/01/31 11:41:38;;;;;;;18.70;13.68;;;;;;;3.80;100.00;99165.23;1782052;79;21209;-75
2021/01/31 11:44:07;;;;;;;23.22;17.75;;;;;;;3.76;100.00;99180.72;1787429;79;20975;-76
2021/01/31 11:46:36;;;;;;;22.87;16.02;;;;;;;3.74;100.00;99181.84;1786512;79;21595;-72
2021/01/31 11:49:04;;;;;;;22.67;17.10;;;;;;;3.67;100.00;99203.59;1780550;79;21939;-75
2021/01/31 11:51:33;;;;;;;23.90;17.57;;;;;;;3.56;100.00;99215.53;1735913;82;21596;-76
2021/01/31 11:54:01;;;;;;;26.50;19.82;;;;;;;3.38;100.00;99210.09;1731367;82;22286;-77
2021/01/31 11:56:29;;;;;;;25.25;17.30;;;;;;;3.23;100.00;99236.66;1740611;81;21194;-76
2021/01/31 11:58:58;;;;;;;23.38;16.65;;;;;;;3.08;100.00;99237.77;1746638;80;21182;-77
2021/01/31 12:01:30;;;;;;;23.57;16.27;;;;;;;2.94;100.00;99254.64;1757381;81;22566;-75
2021/01/31 12:03:58;;;;;;;21.52;15.60;;;;;;;2.80;100.00;99261.20;1744969;81;21638;-77
2021/01/31 12:06:27;;;;;;;23.00;17.15;;;;;;;2.71;100.00;99280.65;1752739;81;21388;-76
2021/01/31 12:08:56;;;;;;;22.52;14.63;;;;;;;2.61;100.00;99289.77;1750067;81;21540;-75
2021/01/31 12:11:24;;;;;;;22.62;15.63;;;;;;;2.49;100.00;99284.09;1747735;81;21096;-75
2021/01/31 12:13:57;;;;;;;22.75;15.18;;;;;;;2.30;100.00;99298.00;1746181;81;21124;-74
2021/01/31 12:16:25;;;;;;;;;;;;;;;2.13;100.00;99293.75;1755339;81;21125;-75
2021/01/31 12:18:54;;;;;;;24.98;16.42;;;;;;;2.02;100.00;99320.51;1746364;81;22297;-75
2021/01/31 12:21:24;;;;;;;25.30;16.25;;;;;;;1.91;100.00;99314.33;1750214;81;21260;-75
2021/01/31 12:23:52;;;;;;;25.35;16.20;;;;;;;1.81;100.00;99329.02;1741870;81;21145;-76
2021/01/31 12:26:21;;;;;;;24.23;16.10;;;;;;;1.71;100.00;99339.40;1748670;81;21125;-76
2021/01/31 12:28:50;;;;;;;23.52;15.95;;;;;;;1.61;100.00;99363.07;1739893;81;21126;-72
2021/01/31 12:31:19;;;;;;;26.27;16.32;;;;;;;1.52;100.00;99359.63;1750486;81;21522;-72
2021/01/31 12:33:48;;;;;;;25.88;17.67;;;;;;;1.43;100.00;99365.62;1746252;81;21219;-76
2021/01/31 12:36:18;;;;;;;23.83;15.30;;;;;;;1.38;100.00;99381.95;1745302;81;21124;-76
2021/01/31 12:38:47;;;;;;;20.95;14.10;;;;;;;1.33;100.00;99380.31;1739144;81;21164;-75
2021/01/31 12:41:15;;;;;;;21.20;13.60;;;;;;;1.27;100.00;99398.37;1747030;81;21480;-76
2021/01/31 12:43:44;;;;;;;23.47;13.90;;;;;;;1.20;100.00;99408.88;1752130;81;21217;-73
2021/01/31 12:46:14;;;;;;;20.90;13.83;;;;;;;1.10;100.00;99429.48;1743644;81;20998;-79
2021/01/31 12:48:42;;;;;;;19.67;12.78;;;;;;;1.02;100.00;99431.11;1749808;81;21232;-80
2021/01/31 12:51:11;;;;;;;18.30;12.23;;;;;;;0.94;100.00;99441.61;1747802;81;21182;-73
2021/01/31 12:53:40;;;;;;;18.55;10.48;;;;;;;0.87;100.00;99450.84;1754780;81;21153;-75
2021/01/31 12:56:08;;;;;;;17.52;11.28;;;;;;;0.78;100.00;99457.27;1734116;81;21212;-73
2021/01/31 12:58:36;;;;;;;17.45;11.22;;;;;;;0.69;100.00;99464.86;1733990;81;21387;-73
2021/01/31 13:01:05;;;;;;;14.78;10.93;;;;;;;0.63;100.00;99465.41;1730626;81;21765;-75
2021/01/31 13:03:33;;;;;;;14.85;10.93;;;;;;;0.56;100.00;99474.59;1738797;81;21156;-73
2021/01/31 13:06:01;;;;;;;17.50;11.90;;;;;;;0.47;100.00;99482.65;1739412;81;21912;-73
2021/01/31 13:08:31;;;;;;;16.23;11.35;;;;;;;0.39;100.00;99496.63;1737406;82;21375;-77
2021/01/31 13:11:01;;;;;;;19.30;12.05;;;;;;;0.32;100.00;99504.52;1741012;81;21137;-72
2021/01/31 13:13:30;;;;;;;17.05;12.23;;;;;;;0.26;100.00;99514.02;1726638;81;21260;-75
2021/01/31 13:15:58;;;;;;;16.70;11.18;;;;;;;0.21;100.00;99504.18;1735495;82;21078;-75
2021/01/31 13:18:27;;;;;;;16.15;11.22;;;;;;;0.19;100.00;99517.62;1743278;81;21164;-75
2021/01/31 13:20:56;;;;;;;19.30;12.13;;;;;;;0.17;100.00;99523.34;1741703;81;21240;-73
2021/01/31 13:23:25;;;;;;;15.32;10.55;;;;;;;0.15;100.00;99529.09;1733765;82;21152;-74
2021/01/31 13:25:53;;;;;;;15.28;10.15;;;;;;;0.13;100.00;99530.96;1745435;81;21141;-75
2021/01/31 13:28:21;;;;;;;19.37;11.80;;;;;;;0.09;100.00;99539.05;1732493;81;21129;-75
2021/01/31 13:30:50;;;;;;;15.55;10.53;;;;;;;0.06;100.00;99535.47;1747086;81;21493;-74
2021/01/31 13:33:18;;;;;;;18.35;11.38;;;;;;;0.01;100.00;99544.84;1735741;81;21383;-74
2021/01/31 13:35:46;;;;;;;14.90;9.88;;;;;;;-0.04;100.00;99549.09;1745195;82;21542;-75
2021/01/31 13:38:15;;;;;;;13.55;9.53;;;;;;;-0.08;100.00;99545.14;1729259;81;21002;-73
2021/01/31 13:40:45;;;;;;;14.87;9.68;;;;;;;-0.10;100.00;99553.45;1738019;81;21216;-74
2021/01/31 13:43:13;;;;;;;14.87;10.23;;;;;;;-0.15;100.00;99559.89;1728052;81;21200;-73
2021/01/31 13:45:42;;;;;;;14.15;9.88;;;;;;;-0.16;100.00;99553.97;1735546;81;21274;-74
2021/01/31 13:48:10;;;;;;;14.58;9.80;;;;;;;-0.19;100.00;99566.22;1738134;81;21219;-79
2021/01/31 13:50:38;;;;;;;14.25;10.30;;;;;;;-0.21;100.00;99574.52;1740245;81;21095;-78
2021/01/31 13:53:06;;;;;;;15.25;10.18;;;;;;;-0.22;100.00;99576.75;1723956;81;20999;-74
2021/01/31 13:55:36;;;;;;;20.92;11.97;;;;;;;-0.25;100.00;99579.90;1738803;81;21124;-72
2021/01/31 13:58:04;;;;;;;16.75;11.53;;;;;;;-0.26;100.00;99583.41;1748485;81;22717;-76
2021/01/31 14:00:32;;;;;;;12.40;9.03;;;;;;;-0.28;100.00;99593.44;1755875;81;21130;-78
2021/01/31 14:03:03;;;;;;;11.70;7.85;;;;;;;-0.32;100.00;99595.44;1738071;81;22307;-73
2021/01/31 14:05:31;;;;;;;11.65;7.53;;;;;;;-0.37;100.00;99599.34;1747386;81;21243;-71
2021/01/31 14:08:00;;;;;;;9.35;6.28;;;;;;;-0.45;100.00;99605.11;1740161;81;21124;-74
2021/01/31 14:10:29;;;;;;;11.25;6.85;;;;;;;-0.52;100.00;99611.67;1743293;81;21391;-73
2021/01/31 14:12:59;;;;;;;8.73;6.08;;;;;;;-0.59;100.00;99614.40;1746322;81;20963;-72
2021/01/31 14:15:28;;;;;;;9.70;6.12;;;;;;;-0.64;100.00;99619.09;1741516;81;21236;-73
2021/01/31 14:17:56;;;;;;;10.10;6.40;;;;;;;-0.69;100.00;99615.61;1752212;81;21065;-72
2021/01/31 14:20:25;;;;;;;8.58;5.03;;;;;;;-0.77;100.00;99620.08;1750942;81;21131;-74
2021/01/31 14:22:54;;;;;;;7.50;4.70;;;;;;;-0.87;100.00;99633.30;1747418;81;21359;-72
2021/01/31 14:25:24;;;;;;;7.35;5.03;;;;;;;-0.97;100.00;99641.84;1742602;81;21163;-71
2021/01/31 14:27:52;;;;;;;6.90;4.50;;;;;;;-1.06;100.00;99647.22;1758180;80;21500;-72
2021/01/31 14:30:21;;;;;;;7.15;4.60;;;;;;;-1.16;100.00;99648.91;1741811;81;21686;-72
2021/01/31 14:32:50;;;;;;;5.97;3.52;;;;;;;-1.24;100.00;99655.91;1800947;78;21056;-72
2021/01/31 14:35:27;;;;;;;16.42;10.03;;;;;;;-1.31;100.00;99661.17;1805824;78;21201;-71
2021/01/31 14:37:55;;;;;;;7.00;4.58;;;;;;;-1.39;100.00;99674.55;1799629;79;21180;-71
2021/01/31 14:40:23;;;;;;;6.90;4.05;;;;;;;-1.48;100.00;99675.27;1804123;78;21169;-72
2021/01/31 14:42:51;;;;;;;6.65;3.75;;;;;;;-1.55;100.00;99669.84;1786596;79;21050;-71
2021/01/31 14:45:28;;;;;;;6.45;4.28;;;;;;;-1.60;100.00;99678.78;1798381;78;21483;-71
2021/01/31 14:47:57;;;;;;;11.20;8.85;;;;;;;-1.63;100.00;99689.23;1799175;78;21523;-73
2021/01/31 14:50:25;;;;;;;7.10;4.92;;;;;;;-1.68;100.00;99693.42;1736914;80;21185;-72
2021/01/31 14:52:55;;;;;;;7.95;5.10;;;;;;;-1.70;100.00;99695.30;1796427;78;21015;-73
2021/01/31 14:55:26;;;;;;;7.33;4.45;;;;;;;-1.73;100.00;99705.29;1799620;78;21109;-72
2021/01/31 14:57:55;;;;;;;9.85;6.00;;;;;;;-1.73;100.00;99707.03;1804509;79;21120;-71
2021/01/31 15:00:31;;;;;;;8.43;4.78;;;;;;;-1.73;100.00;99708.31;1792686;78;21389;-71
2021/01/31 15:03:01;;;;;;;6.97;4.00;;;;;;;-1.75;100.00;99714.80;1794227;78;21576;-79
2021/01/31 15:05:29;;;;;;;7.47;3.72;;;;;;;-1.76;100.00;99709.82;1800386;79;21204;-74
2021/01/31 15:07:59;;;;;;;7.70;5.03;;;;;;;-1.76;100.00;99709.82;1797025;79;21204;-73
2021/01/31 15:10:28;;;;;;;8.10;4.60;;;;;;;-1.75;100.00;99721.19;1732996;80;21106;-73
2021/01/31 15:12:57;;;;;;;8.18;3.80;;;;;;;-1.69;100.00;99722.94;1737703;81;21201;-72
2021/01/31 15:15:27;;;;;;;14.10;8.10;;;;;;;-1.65;100.00;99731.53;1732259;81;21153;-71
2021/01/31 15:17:56;;;;;;;6.10;3.67;;;;;;;-1.60;100.00;99727.34;1743997;81;21081;-76
2021/01/31 15:20:28;;;;;;;6.90;4.25;;;;;;;-1.55;100.00;99724.79;1754814;80;21132;-69
2021/01/31 15:22:56;;;;;;;42.00;21.57;;;;;;;-1.51;100.00;99717.23;1798616;78;21501;-69
2021/01/31 15:25:25;;;;;;;12.33;8.48;;;;;;;-1.46;100.00;99730.92;1793975;78;21225;-69
2021/01/31 15:27:54;;;;;;;37.10;19.27;;;;;;;-1.42;100.00;99762.98;1801425;78;20978;-70
2021/01/31 15:30:27;;;;;;;34.55;19.55;;;;;;;-1.37;100.00;99781.33;1800895;78;21140;-69
2021/01/31 15:32:55;;;;;;;14.53;8.75;;;;;;;-1.33;100.00;99789.58;1807376;78;21022;-72
2021/01/31 15:35:24;;;;;;;12.00;6.92;;;;;;;-1.31;100.00;99784.70;1802502;79;21156;-72
2021/01/31 15:37:53;;;;;;;9.63;5.90;;;;;;;-1.29;100.00;99777.73;1802000;78;21612;-71
2021/01/31 15:40:22;;;;;;;7.28;4.75;;;;;;;-1.26;100.00;99775.39;1805243;78;21139;-71
2021/01/31 15:42:50;;;;;;;6.30;4.12;;;;;;;-1.24;100.00;99773.54;1800041;78;21002;-71
2021/01/31 15:45:22;;;;;;;10.25;4.85;;;;;;;-1.23;100.00;99770.85;1793739;78;21224;-70
2021/01/31 15:47:51;;;;;;;;;;;;;;;-1.22;100.00;99782.70;1803580;78;21513;-71
2021/01/31 15:50:19;;;;;;;11.10;7.47;;;;;;;-1.20;100.00;99781.32;1804890;78;22535;-71
2021/01/31 15:52:47;;;;;;;7.20;4.92;;;;;;;-1.19;100.00;99794.91;1802949;78;21200;-73
2021/01/31 15:55:15;;;;;;;8.30;5.22;;;;;;;-1.18;100.00;99801.17;1805710;78;21727;-70
2021/01/31 15:57:45;;;;;;;7.35;5.20;;;;;;;-1.17;100.00;99812.25;1733428;80;21221;-70